Time;durP1;ratioP1;P1;durP2;ratioP2;P2;SDS_P1;SDS_P2;PMS_P1;PMS_P2;Temp;Humidity;BMP_temperature;BMP_pressure;BME280_temperature;BME280_humidity;BME280_pressure;Samples;Min_cycle;Max_cycle;Signal;HPM_P1;HPM_P2
2022/08/17 00:02:23;;;;;;;17.50;14.60;;;;;;;17.86;75.65;99645.39;2073172;84;21314;-70
2022/08/17 00:05:25;;;;;;;18.23;12.15;;;;;;;17.86;75.47;99647.27;2066041;84;21007;-71
2022/08/17 00:08:36;;;;;;;15.93;13.90;;;;;;;17.85;75.22;99650.97;2071622;85;20999;-70
2022/08/17 00:11:42;;;;;;;21.15;16.40;;;;;;;17.88;75.28;99648.68;2073686;85;21499;-70
2022/08/17 00:14:43;;;;;;;17.07;13.05;;;;;;;17.86;75.21;99644.05;2073132;84;21013;-71
2022/08/17 00:17:48;;;;;;;15.13;12.40;;;;;;;17.84;74.95;99648.81;2065070;84;21589;-70
2022/08/17 00:20:49;;;;;;;17.42;12.80;;;;;;;17.82;74.78;99644.72;2073217;85;21006;-72
2022/08/17 00:23:51;;;;;;;16.62;11.65;;;;;;;17.79;74.71;99650.53;2072100;85;21633;-70
2022/08/17 00:26:52;;;;;;;18.65;13.48;;;;;;;17.77;74.78;99646.72;2065934;84;21861;-71
2022/08/17 00:29:53;;;;;;;15.00;12.60;;;;;;;17.80;75.01;99645.48;2066094;84;21051;-70
2022/08/17 00:32:55;;;;;;;13.88;12.30;;;;;;;17.78;74.95;99648.88;2073703;84;21052;-70
2022/08/17 00:35:58;;;;;;;15.45;12.13;;;;;;;17.73;74.80;99647.39;2075098;84;22533;-71
2022/08/17 00:38:59;;;;;;;16.97;12.15;;;;;;;17.68;74.98;99648.89;2068744;84;21021;-72
2022/08/17 00:42:00;;;;;;;16.25;11.30;;;;;;;17.67;75.08;99645.89;2072106;84;21484;-71
2022/08/17 00:45:05;;;;;;;18.32;13.78;;;;;;;17.66;74.67;99652.31;2066181;85;21023;-71
2022/08/17 00:48:06;;;;;;;19.12;13.90;;;;;;;17.63;74.99;99651.42;2066378;85;21060;-70
2022/08/17 00:51:16;;;;;;;14.13;12.30;;;;;;;17.58;75.00;99653.14;2066179;84;21619;-70
2022/08/17 00:54:33;;;;;;;15.95;13.58;;;;;;;17.52;75.14;99650.02;2064902;84;21058;-70
2022/08/17 00:57:41;;;;;;;14.83;12.07;;;;;;;17.52;75.54;99656.72;2098238;84;21068;-71
2022/08/17 01:00:46;;;;;;;19.80;12.47;;;;;;;17.47;75.42;99648.80;2098079;84;21050;-70
2022/08/17 01:03:50;;;;;;;12.07;10.72;;;;;;;17.43;75.26;99651.65;2098308;84;21039;-70
2022/08/17 01:06:52;;;;;;;13.53;10.40;;;;;;;17.42;75.11;99655.35;2096707;84;21106;-71
2022/08/17 01:09:54;;;;;;;17.25;11.88;;;;;;;17.36;75.11;99654.09;2095985;84;21444;-71
2022/08/17 01:12:55;;;;;;;18.17;11.28;;;;;;;17.33;75.13;99651.33;2094922;84;21083;-73
2022/08/17 01:16:14;;;;;;;16.02;12.37;;;;;;;17.31;75.11;99660.11;2092221;83;20993;-71
2022/08/17 01:19:24;;;;;;;15.70;10.80;;;;;;;17.32;75.37;99654.25;2090553;84;21075;-70
2022/08/17 01:22:25;;;;;;;15.00;10.45;;;;;;;17.29;75.03;99658.69;2092373;84;21036;-71
2022/08/17 01:25:28;;;;;;;16.27;10.00;;;;;;;17.24;75.21;99658.03;2095572;84;21010;-71
2022/08/17 01:28:32;;;;;;;14.50;11.15;;;;;;;17.21;75.25;99656.61;2097687;84;21482;-71
2022/08/17 01:31:42;;;;;;;17.90;10.82;;;;;;;17.19;75.30;99649.83;2099781;84;21016;-72
2022/08/17 01:34:45;;;;;;;17.40;11.68;;;;;;;17.18;75.33;99646.86;2065282;85;21002;-71
2022/08/17 01:37:46;;;;;;;15.30;9.68;;;;;;;17.17;75.33;99642.52;2094684;84;21008;-72
2022/08/17 01:40:51;;;;;;;19.98;10.18;;;;;;;17.18;75.24;99645.52;2063378;85;21594;-71
2022/08/17 01:43:56;;;;;;;13.58;10.38;;;;;;;17.17;75.21;99650.56;2095912;84;21103;-71
2022/08/17 01:46:57;;;;;;;15.88;10.03;;;;;;;17.13;75.04;99640.81;2093790;84;21079;-71
2022/08/17 01:50:09;;;;;;;18.75;10.00;;;;;;;17.08;74.99;99641.17;2095248;84;21050;-71
2022/08/17 01:53:21;;;;;;;13.58;10.10;;;;;;;17.05;75.05;99637.07;2058083;85;21591;-71
2022/08/17 01:56:25;;;;;;;12.90;11.33;;;;;;;17.07;75.10;99639.02;2064911;84;21025;-71
2022/08/17 01:59:26;;;;;;;11.83;9.15;;;;;;;17.03;75.10;99639.98;2053480;86;21117;-71
2022/08/17 02:02:27;;;;;;;16.12;11.40;;;;;;;17.01;75.28;99637.22;2031792;86;20989;-71
2022/08/17 02:05:28;;;;;;;9.88;8.45;;;;;;;16.95;75.19;99638.08;2055476;86;21056;-70
2022/08/17 02:08:34;;;;;;;14.05;10.10;;;;;;;16.90;75.33;99642.78;2049738;86;20997;-71
2022/08/17 02:11:37;;;;;;;12.18;10.80;;;;;;;16.83;75.07;99640.66;2015531;87;21141;-70
2022/08/17 02:14:38;;;;;;;18.45;11.88;;;;;;;16.80;75.44;99639.23;2023742;86;21123;-71
2022/08/17 02:17:39;;;;;;;16.67;11.75;;;;;;;16.83;75.71;99637.17;2023561;86;20993;-70
2022/08/17 02:20:42;;;;;;;12.82;11.33;;;;;;;16.82;75.99;99635.02;2033941;85;21032;-71
2022/08/17 02:23:47;;;;;;;17.20;11.30;;;;;;;16.85;76.27;99636.44;2030599;85;20996;-71
2022/08/17 02:26:48;;;;;;;10.98;8.73;;;;;;;16.81;75.65;99638.74;2030928;86;21021;-70
2022/08/17 02:29:49;;;;;;;25.95;12.85;;;;;;;16.81;75.94;99644.10;2031278;86;21618;-72
2022/08/17 02:32:54;;;;;;;13.98;12.58;;;;;;;16.76;76.42;99634.03;2027333;87;21104;-70
2022/08/17 02:35:56;;;;;;;13.20;8.90;;;;;;;16.68;76.66;99634.80;2033629;86;21113;-70
2022/08/17 02:38:57;;;;;;;15.78;9.35;;;;;;;16.62;76.41;99635.14;2020789;87;21062;-71
2022/08/17 02:42:02;;;;;;;16.57;9.40;;;;;;;16.62;76.26;99638.34;2023380;86;21040;-71
2022/08/17 02:45:09;;;;;;;10.93;9.35;;;;;;;16.62;76.12;99635.67;2032498;86;21139;-70
2022/08/17 02:48:11;;;;;;;11.73;8.85;;;;;;;16.57;76.05;99630.43;2032062;86;21064;-71
2022/08/17 02:51:12;;;;;;;15.53;9.30;;;;;;;16.54;75.96;99637.56;2027893;85;21051;-70
2022/08/17 02:54:13;;;;;;;14.47;13.13;;;;;;;16.52;75.87;99634.27;2032682;87;21123;-70
2022/08/17 02:57:14;;;;;;;19.40;14.18;;;;;;;16.46;76.58;99634.33;2064212;85;21072;-71
2022/08/17 03:00:24;;;;;;;10.32;8.85;;;;;;;16.45;77.06;99640.21;2064409;85;21118;-73
2022/08/17 03:03:25;;;;;;;16.45;13.05;;;;;;;16.42;76.82;99643.84;2095589;84;21013;-71
2022/08/17 03:06:28;;;;;;;17.02;11.12;;;;;;;16.38;77.29;99644.77;2062908;85;21581;-71
2022/08/17 03:09:29;;;;;;;12.65;11.03;;;;;;;16.39;77.31;99649.11;2060951;85;21094;-71
2022/08/17 03:12:33;;;;;;;14.45;10.30;;;;;;;16.36;77.01;99646.88;2062065;85;21044;-70
2022/08/17 03:15:34;;;;;;;16.12;10.53;;;;;;;16.35;76.90;99654.05;2095899;84;21556;-72
2022/08/17 03:18:35;;;;;;;20.80;10.55;;;;;;;16.33;76.76;99649.95;2097991;84;21447;-71
2022/08/17 03:21:36;;;;;;;13.98;9.80;;;;;;;16.32;76.71;99662.52;2094041;84;22360;-71
2022/08/17 03:24:37;;;;;;;15.60;10.10;;;;;;;16.32;76.63;99655.02;2087543;84;20990;-70
2022/08/17 03:27:38;;;;;;;12.37;11.08;;;;;;;16.27;76.41;99657.52;2090185;84;21107;-72
2022/08/17 03:30:40;;;;;;;19.23;13.65;;;;;;;16.27;76.72;99652.16;2098007;84;20983;-70
2022/08/17 03:33:41;;;;;;;14.40;12.58;;;;;;;16.28;77.08;99652.48;2094168;84;21110;-71
2022/08/17 03:36:42;;;;;;;14.25;11.63;;;;;;;16.22;77.13;99657.33;2097081;84;21047;-70
2022/08/17 03:39:43;;;;;;;13.15;10.63;;;;;;;16.16;77.47;99658.19;2089992;84;20996;-71
2022/08/17 03:42:44;;;;;;;13.48;11.12;;;;;;;16.12;77.35;99657.81;2092614;84;21066;-71
2022/08/17 03:59:05;;;;;;;14.90;10.82;;;;;;;16.04;77.42;99664.22;2021808;87;21630;-72
2022/08/17 04:02:11;;;;;;;11.75;9.88;;;;;;;16.03;77.31;99674.63;2018357;87;21095;-71
2022/08/17 04:05:14;;;;;;;17.98;11.43;;;;;;;16.03;77.22;99670.62;2045536;85;21102;-72
2022/08/17 04:08:15;;;;;;;14.03;10.90;;;;;;;16.06;77.24;99674.72;2019434;87;21061;-71
2022/08/17 04:11:16;;;;;;;15.23;10.85;;;;;;;16.12;77.29;99679.22;2019222;87;21582;-72
2022/08/17 04:14:17;;;;;;;13.22;10.38;;;;;;;16.29;77.57;99687.57;2021133;87;20991;-71
2022/08/17 04:17:19;;;;;;;11.12;9.13;;;;;;;16.45;77.58;99680.91;2022293;87;21640;-72
2022/08/17 04:20:22;;;;;;;12.18;9.15;;;;;;;16.69;77.42;99680.62;2057276;85;21077;-71
2022/08/17 04:23:27;;;;;;;13.03;9.43;;;;;;;16.96;77.28;99679.41;2052601;85;21134;-72
2022/08/17 04:26:27;;;;;;;11.53;9.28;;;;;;;17.22;76.92;99681.03;2018551;87;21111;-72
2022/08/17 04:29:28;;;;;;;11.78;10.55;;;;;;;17.54;76.93;99681.44;2016312;87;21092;-73
2022/08/17 04:32:30;;;;;;;10.53;9.53;;;;;;;17.85;76.74;99677.81;2052853;86;21049;-72
2022/08/17 04:35:36;;;;;;;12.20;10.03;;;;;;;18.16;76.59;99690.25;2022516;87;21088;-72
2022/08/17 04:38:40;;;;;;;13.35;11.15;;;;;;;18.55;76.14;99697.44;2049976;85;21092;-71
2022/08/17 04:45:03;;;;;;;16.23;11.60;;;;;;;19.36;75.63;99698.63;2048569;86;21079;-72
2022/08/17 04:48:04;;;;;;;12.53;10.48;;;;;;;19.81;75.37;99702.59;1997542;87;21131;-72
2022/08/17 04:51:11;;;;;;;11.73;10.58;;;;;;;20.28;74.75;99703.81;2018348;87;20989;-72
2022/08/17 04:54:19;;;;;;;14.95;10.85;;;;;;;20.60;74.00;99704.15;2020111;87;21152;-71
2022/08/17 04:57:20;;;;;;;14.33;9.85;;;;;;;20.91;73.40;99698.74;2044823;85;21485;-71
2022/08/17 05:00:24;;;;;;;14.33;10.53;;;;;;;21.37;72.36;99672.52;2093637;84;21032;-72
2022/08/17 05:03:25;;;;;;;13.78;10.63;;;;;;;21.37;72.36;99672.52;2061892;85;21524;-71
2022/08/17 05:06:27;;;;;;;14.10;11.20;;;;;;;21.96;72.19;99692.15;2088659;84;22181;-72
2022/08/17 05:09:29;;;;;;;15.88;10.95;;;;;;;22.52;71.77;99694.14;2054069;85;21056;-71
2022/08/17 05:12:29;;;;;;;13.20;10.90;;;;;;;22.95;70.44;99699.68;2070477;84;21103;-72
2022/08/17 05:15:32;;;;;;;16.23;11.75;;;;;;;23.19;69.59;99701.50;2092311;84;21027;-72
2022/08/17 05:18:33;;;;;;;13.65;10.75;;;;;;;23.37;69.21;99707.02;2092252;84;21058;-72
2022/08/17 05:21:34;;;;;;;14.18;11.33;;;;;;;23.68;69.06;99707.49;2093072;84;21110;-72
2022/08/17 05:24:35;;;;;;;34.00;26.90;;;;;;;24.22;68.45;99713.70;2057519;84;21024;-72
2022/08/17 05:27:36;;;;;;;30.43;24.47;;;;;;;24.48;67.44;99709.98;2092115;84;21022;-72
2022/08/17 05:30:40;;;;;;;25.60;20.92;;;;;;;24.90;67.22;99713.57;2058442;85;21106;-70
2022/08/17 05:33:43;;;;;;;19.73;17.62;;;;;;;25.25;66.10;99710.03;2093565;83;21103;-71
2022/08/17 05:36:44;;;;;;;17.37;15.32;;;;;;;25.60;65.21;99711.07;2097228;84;21043;-71
2022/08/17 05:39:45;;;;;;;17.52;15.58;;;;;;;25.78;64.67;99705.02;2085925;84;21063;-71
2022/08/17 05:42:48;;;;;;;15.50;13.90;;;;;;;26.12;64.27;99702.45;2056352;85;21053;-71
2022/08/17 05:46:20;;;;;;;14.73;13.25;;;;;;;26.45;63.87;99695.21;2094381;83;21064;-71
2022/08/17 05:49:26;;;;;;;16.27;11.73;;;;;;;26.99;63.35;99692.91;2092947;84;21005;-71
2022/08/17 05:52:49;;;;;;;16.02;12.58;;;;;;;27.26;62.21;99702.77;2101983;84;21079;-71
2022/08/17 05:56:02;;;;;;;15.95;12.78;;;;;;;27.55;61.77;99706.02;2090365;83;21047;-71
2022/08/17 05:59:27;;;;;;;12.70;11.38;;;;;;;27.82;60.55;99715.53;2050749;85;21001;-71
2022/08/17 06:02:49;;;;;;;13.83;12.40;;;;;;;27.85;59.95;99723.16;2063757;85;21118;-74
2022/08/17 06:06:26;;;;;;;15.00;11.30;;;;;;;28.06;59.45;99715.52;2060516;85;21121;-70
2022/08/17 06:09:38;;;;;;;16.42;11.75;;;;;;;28.51;58.81;99711.37;2052462;85;21530;-72
2022/08/17 06:12:51;;;;;;;20.62;11.10;;;;;;;28.69;58.05;99718.47;2057726;85;21163;-72
2022/08/17 06:16:12;;;;;;;12.10;10.78;;;;;;;28.87;57.40;99712.19;2093130;84;21047;-72
2022/08/17 06:19:25;;;;;;;14.93;11.33;;;;;;;28.98;56.67;99705.45;2093074;83;21076;-73
2022/08/17 06:22:37;;;;;;;14.43;10.20;;;;;;;29.13;56.26;99717.25;2091461;84;21051;-73
2022/08/17 06:25:44;;;;;;;11.08;9.98;;;;;;;29.64;55.32;99719.06;2067107;84;21533;-72
2022/08/17 06:29:02;;;;;;;18.32;11.48;;;;;;;29.64;55.32;99719.06;2092723;84;21509;-72
2022/08/17 06:32:07;;;;;;;14.35;10.78;;;;;;;29.86;54.61;99716.43;2092629;84;21095;-72
2022/08/17 06:35:13;;;;;;;13.62;10.35;;;;;;;30.14;54.22;99715.03;2091908;84;21053;-72
2022/08/17 06:38:35;;;;;;;17.62;11.05;;;;;;;30.43;53.53;99722.09;2092210;84;20989;-71
2022/08/17 06:41:58;;;;;;;11.90;10.65;;;;;;;30.54;52.66;99716.63;2082206;84;20966;-72
2022/08/17 06:45:20;;;;;;;16.52;10.20;;;;;;;30.57;52.56;99722.86;2091848;84;21022;-71
2022/08/17 06:48:45;;;;;;;12.43;9.88;;;;;;;30.89;52.01;99719.12;2092150;84;21045;-72
2022/08/17 06:52:07;;;;;;;11.75;9.90;;;;;;;31.06;51.18;99719.79;2093808;84;21064;-73
2022/08/17 06:55:14;;;;;;;15.08;9.93;;;;;;;31.26;51.08;99727.48;2081118;84;21033;-73
2022/08/17 06:58:21;;;;;;;13.40;9.35;;;;;;;31.31;50.36;99728.45;2093035;84;21605;-73
2022/08/17 07:01:28;;;;;;;12.88;9.83;;;;;;;31.21;49.81;99726.80;2095130;84;20988;-72
2022/08/17 07:04:33;;;;;;;14.20;9.03;;;;;;;31.21;49.90;99724.06;2100456;84;21110;-73
2022/08/17 07:08:00;;;;;;;11.35;8.65;;;;;;;31.25;49.81;99725.03;2101832;83;21602;-72
2022/08/17 07:11:12;;;;;;;11.35;8.60;;;;;;;31.52;49.50;99727.39;2094871;84;21554;-73
2022/08/17 07:14:50;;;;;;;11.93;8.98;;;;;;;31.72;49.06;99726.81;2061805;85;21108;-74
2022/08/17 07:17:58;;;;;;;10.28;8.75;;;;;;;31.90;49.03;99727.13;2092983;84;21020;-73
2022/08/17 07:21:07;;;;;;;9.23;7.87;;;;;;;32.06;48.66;99734.36;2052605;85;21023;-72
2022/08/17 07:24:32;;;;;;;9.88;8.03;;;;;;;32.21;47.98;99731.72;2065067;85;21058;-74
2022/08/17 07:27:40;;;;;;;9.25;8.20;;;;;;;32.41;47.79;99735.81;2061798;85;21103;-75
2022/08/17 07:30:49;;;;;;;10.93;8.15;;;;;;;32.75;46.71;99731.48;2053470;85;21064;-73
2022/08/17 07:34:05;;;;;;;12.07;8.43;;;;;;;32.77;46.56;99736.86;2091752;83;21043;-72
2022/08/17 07:37:06;;;;;;;10.45;8.28;;;;;;;32.95;46.38;99736.30;2061926;85;21056;-73
2022/08/17 07:40:27;;;;;;;9.90;8.78;;;;;;;33.14;45.91;99741.47;2097434;84;21020;-73
2022/08/17 07:43:40;;;;;;;9.45;8.50;;;;;;;33.06;44.82;99739.55;2054336;85;21590;-73
2022/08/17 07:50:29;;;;;;;16.10;7.97;;;;;;;33.15;44.80;99738.15;2061681;85;21021;-73
2022/08/17 07:53:30;;;;;;;11.20;7.47;;;;;;;33.46;44.44;99745.57;2063994;85;21406;-73
2022/08/17 07:56:46;;;;;;;12.28;7.10;;;;;;;33.73;44.06;99746.86;2063495;85;21515;-73
2022/08/17 08:00:04;;;;;;;10.10;7.25;;;;;;;33.98;43.61;99749.25;2098150;84;21090;-73
2022/08/17 08:03:30;;;;;;;12.45;8.00;;;;;;;34.06;43.28;99745.67;2094736;84;21670;-73
2022/08/17 08:06:31;;;;;;;9.85;8.50;;;;;;;34.34;42.77;99745.98;2057089;85;20970;-73
2022/08/17 08:09:40;;;;;;;9.48;7.47;;;;;;;34.51;42.26;99745.84;2094046;83;21076;-72
2022/08/17 08:12:44;;;;;;;;;;;;;;;34.64;42.31;99750.88;2096013;84;21076;-73
2022/08/17 08:15:49;;;;;;;13.08;8.08;;;;;;;34.80;41.60;99744.16;2091061;84;20129;-73
2022/08/17 08:19:44;;;;;;;9.05;8.18;;;;;;;34.91;41.49;99745.93;2089618;84;21042;-72
2022/08/17 08:23:05;;;;;;;9.08;7.70;;;;;;;34.96;41.09;99743.77;2063206;85;21599;-73
2022/08/17 08:26:54;;;;;;;16.40;8.88;;;;;;;34.92;40.51;99743.42;2089667;84;21052;-73
2022/08/17 08:30:13;;;;;;;9.05;7.50;;;;;;;35.08;40.47;99746.36;2091711;84;21066;-73
2022/08/17 08:33:30;;;;;;;13.60;7.60;;;;;;;35.34;40.34;99755.72;2094484;84;21098;-74
2022/08/17 08:37:12;;;;;;;9.30;7.53;;;;;;;35.52;40.00;99751.63;2092494;84;21106;-73
2022/08/17 08:40:54;;;;;;;10.18;7.92;;;;;;;35.60;39.65;99753.52;2089909;84;22238;-74
2022/08/17 08:44:10;;;;;;;8.90;7.85;;;;;;;35.60;39.04;99743.86;2087990;84;21572;-74
2022/08/17 08:47:36;;;;;;;11.85;8.03;;;;;;;35.45;39.12;99751.38;2091223;84;21000;-74
2022/08/17 08:51:00;;;;;;;10.32;8.18;;;;;;;35.57;39.21;99750.64;2060011;85;20992;-73
2022/08/17 08:54:07;;;;;;;16.30;7.50;;;;;;;35.67;38.85;99744.08;2091409;84;21052;-73
2022/08/17 08:57:28;;;;;;;13.85;7.47;;;;;;;35.84;38.79;99741.66;2090119;84;21106;-74
2022/08/17 09:00:34;;;;;;;9.83;7.58;;;;;;;36.00;38.68;99743.16;2096212;84;21114;-73
2022/08/17 09:04:11;;;;;;;10.65;7.55;;;;;;;35.99;37.62;99747.08;2096306;84;21692;-74
2022/08/17 09:07:30;;;;;;;8.90;7.35;;;;;;;35.66;37.72;99745.23;2092678;84;21060;-75
2022/08/17 09:10:49;;;;;;;;;;;;;;;35.73;37.98;99739.13;2097288;84;20981;-73
2022/08/17 09:14:18;;;;;;;7.55;6.60;;;;;;;35.83;37.36;99735.13;2062767;85;20237;-74
2022/08/17 09:17:24;;;;;;;8.83;6.95;;;;;;;35.90;36.59;99732.58;2062826;85;21091;-73
2022/08/17 09:20:39;;;;;;;8.15;6.72;;;;;;;36.01;36.39;99733.71;2022413;84;21083;-73
2022/08/17 09:23:58;;;;;;;9.50;6.85;;;;;;;35.90;36.74;99731.19;2054561;85;20973;-73
2022/08/17 09:27:12;;;;;;;8.40;6.80;;;;;;;35.74;36.97;99728.34;2093190;84;20981;-73
2022/08/17 09:30:14;;;;;;;9.13;6.72;;;;;;;35.68;36.08;99738.00;2093427;83;21003;-73
2022/08/17 09:33:24;;;;;;;7.58;6.75;;;;;;;35.74;35.78;99734.45;2097718;84;20949;-74
2022/08/17 09:36:36;;;;;;;10.20;7.08;;;;;;;35.71;36.38;99730.42;2092298;83;21022;-71
2022/08/17 09:40:18;;;;;;;12.37;7.22;;;;;;;35.79;35.71;99735.02;2098160;84;21636;-72
2022/08/17 09:43:43;;;;;;;11.65;7.47;;;;;;;35.65;36.26;99727.08;2062739;85;21095;-73
2022/08/17 09:46:58;;;;;;;12.85;7.65;;;;;;;35.90;36.35;99725.67;2093936;84;21577;-73
2022/08/17 09:50:12;;;;;;;9.93;6.87;;;;;;;35.94;35.76;99723.84;2094491;84;21605;-72
2022/08/17 09:53:13;;;;;;;9.60;6.60;;;;;;;36.02;35.54;99729.82;2062341;85;21044;-73
2022/08/17 09:56:28;;;;;;;11.25;6.70;;;;;;;36.06;35.67;99725.81;2064230;85;21043;-73
2022/08/17 10:03:36;;;;;;;7.50;5.47;;;;;;;36.30;34.25;99720.25;2084188;84;21432;-74
2022/08/17 10:06:58;;;;;;;6.75;6.15;;;;;;;35.96;33.42;99719.34;2086044;84;21538;-73
2022/08/17 10:10:18;;;;;;;6.87;6.20;;;;;;;35.44;32.76;99723.00;2084400;84;20950;-73
2022/08/17 10:13:51;;;;;;;7.05;6.35;;;;;;;35.21;33.61;99718.48;2053659;85;21012;-73
2022/08/17 10:16:58;;;;;;;6.85;6.12;;;;;;;35.46;33.57;99718.53;2076145;84;21066;-74
2022/08/17 10:20:19;;;;;;;8.73;6.58;;;;;;;35.18;33.19;99725.27;2076054;85;21112;-73
2022/08/17 10:26:48;;;;;;;8.58;6.12;;;;;;;34.80;34.57;99723.50;2075725;85;21078;-75
2022/08/17 10:29:54;;;;;;;10.93;6.30;;;;;;;35.00;34.37;99725.97;2075453;84;21042;-74
2022/08/17 10:33:04;;;;;;;7.80;5.75;;;;;;;35.25;33.85;99727.70;2077555;84;21104;-74
2022/08/17 10:36:22;;;;;;;7.92;7.12;;;;;;;35.57;34.01;99717.54;2077340;84;21089;-73
2022/08/17 10:39:53;;;;;;;7.12;6.05;;;;;;;35.44;33.31;99720.23;2076644;84;21055;-73
2022/08/17 10:43:22;;;;;;;7.60;6.03;;;;;;;35.51;33.93;99718.31;2076961;84;21070;-76
2022/08/17 10:47:02;;;;;;;8.68;5.75;;;;;;;35.51;33.53;99710.03;2077545;85;21350;-73
2022/08/17 10:50:11;;;;;;;10.40;6.00;;;;;;;35.56;32.53;99705.67;2078211;85;21072;-73
2022/08/17 10:53:42;;;;;;;8.23;6.72;;;;;;;35.06;33.84;99718.33;2074977;84;21103;-72
2022/08/17 10:56:49;;;;;;;7.72;6.75;;;;;;;35.12;34.05;99717.78;2075373;84;21033;-73
2022/08/17 10:59:53;;;;;;;8.45;6.10;;;;;;;35.61;34.44;99714.31;2070362;85;21101;-73
2022/08/17 11:02:56;;;;;;;45.15;8.25;;;;;;;35.78;33.75;99727.07;2070535;84;21161;-75
2022/08/17 11:06:15;;;;;;;12.47;6.45;;;;;;;35.37;33.73;99733.81;2069902;84;22299;-75
2022/08/17 11:09:30;;;;;;;18.62;6.92;;;;;;;34.72;34.35;99733.48;2070538;84;21002;-73
2022/08/17 11:12:37;;;;;;;7.92;5.97;;;;;;;34.17;35.12;99737.27;2092058;84;21077;-73
2022/08/17 11:15:59;;;;;;;6.92;5.80;;;;;;;33.80;35.08;99731.46;2098971;84;21010;-73
2022/08/17 11:19:27;;;;;;;34.78;7.22;;;;;;;33.48;35.62;99741.93;2075722;84;21024;-72
2022/08/17 11:22:59;;;;;;;11.38;6.15;;;;;;;33.09;36.02;99733.39;2095781;84;21533;-73
2022/08/17 11:26:06;;;;;;;9.53;5.83;;;;;;;32.77;35.92;99728.62;2097035;84;22221;-73
2022/08/17 11:29:20;;;;;;;20.97;5.33;;;;;;;32.51;36.14;99733.33;2096771;84;22237;-74
2022/08/17 11:32:41;;;;;;;5.85;5.28;;;;;;;32.33;36.69;99736.61;2094902;84;21122;-76
2022/08/17 11:35:47;;;;;;;5.97;5.20;;;;;;;32.14;37.03;99734.95;2097246;84;21657;-74
2022/08/17 11:39:00;;;;;;;16.50;5.72;;;;;;;32.00;37.34;99735.64;2093191;84;21009;-74
2022/08/17 11:42:35;;;;;;;16.77;5.72;;;;;;;31.84;38.50;99728.95;2054706;85;21075;-72
2022/08/17 11:45:41;;;;;;;8.08;5.33;;;;;;;31.73;39.08;99726.25;2097426;84;21012;-73
2022/08/17 11:52:39;;;;;;;7.05;5.03;;;;;;;31.38;41.57;99724.75;2091559;84;21055;-73
2022/08/17 11:55:58;;;;;;;5.85;5.35;;;;;;;31.24;42.67;99722.86;2070278;84;21090;-75
2022/08/17 11:59:00;;;;;;;5.90;5.30;;;;;;;31.16;44.09;99722.81;2089797;84;21015;-73
2022/08/17 12:02:29;;;;;;;6.92;5.55;;;;;;;31.09;44.46;99717.80;2032487;85;21059;-73
2022/08/17 12:05:29;;;;;;;5.35;4.95;;;;;;;31.08;44.93;99720.27;2071124;84;21052;-73
2022/08/17 12:08:32;;;;;;;6.03;5.42;;;;;;;31.20;45.67;99716.41;2097099;84;21024;-75
2022/08/17 12:11:56;;;;;;;7.03;5.58;;;;;;;31.36;44.67;99716.83;2091425;84;21633;-72
2022/08/17 12:14:59;;;;;;;6.33;5.78;;;;;;;31.80;42.75;99712.33;2094755;84;20960;-73
2022/08/17 12:18:00;;;;;;;12.50;5.65;;;;;;;32.36;41.16;99708.51;2061040;84;21028;-72
2022/08/17 12:21:39;;;;;;;6.45;5.67;;;;;;;32.81;39.68;99704.08;2093189;84;21575;-73
2022/08/17 12:25:09;;;;;;;10.03;5.25;;;;;;;32.86;37.93;99706.66;2044527;85;21100;-73
2022/08/17 12:28:32;;;;;;;9.05;5.28;;;;;;;33.13;36.83;99700.56;2095036;83;21016;-74
2022/08/17 12:31:46;;;;;;;5.67;5.15;;;;;;;33.45;36.84;99705.47;2091048;84;21511;-73
2022/08/17 12:34:48;;;;;;;7.00;5.50;;;;;;;33.74;36.50;99697.61;2093081;84;20996;-74
2022/08/17 12:37:50;;;;;;;7.58;5.25;;;;;;;33.84;36.79;99699.38;2097312;84;21570;-73
2022/08/17 12:40:56;;;;;;;8.35;5.75;;;;;;;33.97;35.90;99697.53;2063648;85;21095;-73
2022/08/17 12:44:08;;;;;;;6.90;5.85;;;;;;;34.11;35.70;99695.94;2061576;85;21012;-73
2022/08/17 12:47:17;;;;;;;6.00;5.50;;;;;;;33.86;34.18;99695.73;2074649;84;21026;-73
2022/08/17 12:50:18;;;;;;;;;;;;;;;33.73;34.16;99685.77;2098089;84;21514;-73
2022/08/17 12:53:23;;;;;;;6.33;5.53;;;;;;;33.72;33.20;99682.80;2094251;84;20108;-73
2022/08/17 12:56:25;;;;;;;5.97;5.37;;;;;;;33.39;32.39;99679.84;2097617;84;21027;-73
2022/08/17 12:59:26;;;;;;;5.72;5.10;;;;;;;33.24;33.74;99679.83;2095361;84;20997;-74
2022/08/17 13:03:02;;;;;;;7.30;5.72;;;;;;;33.37;32.99;99677.44;2095498;84;20988;-73
2022/08/17 13:06:08;;;;;;;6.00;5.50;;;;;;;33.25;33.16;99678.69;2093083;83;21595;-73
2022/08/17 13:09:14;;;;;;;5.60;5.08;;;;;;;33.23;33.63;99683.16;2095498;84;21611;-74
2022/08/17 13:12:30;;;;;;;5.58;5.08;;;;;;;33.38;34.27;99682.36;2062300;85;21057;-76
2022/08/17 13:15:42;;;;;;;6.42;5.47;;;;;;;33.46;34.03;99678.20;2093845;84;21997;-73
2022/08/17 13:18:48;;;;;;;5.42;4.92;;;;;;;33.66;34.54;99668.42;2095168;84;21066;-73
2022/08/17 13:21:58;;;;;;;5.60;5.10;;;;;;;33.70;34.23;99676.27;2093259;84;21094;-73
2022/08/17 13:25:06;;;;;;;5.40;4.90;;;;;;;33.67;34.37;99677.47;2062545;85;21050;-73
2022/08/17 13:28:12;;;;;;;33.20;6.05;;;;;;;33.68;34.46;99679.11;2094424;83;21077;-73
2022/08/17 13:31:28;;;;;;;7.08;5.10;;;;;;;33.80;34.63;99679.19;2062853;84;21008;-74
2022/08/17 13:34:44;;;;;;;5.65;5.15;;;;;;;33.90;34.56;99676.06;2054975;85;21090;-73
2022/08/17 13:38:05;;;;;;;6.85;4.83;;;;;;;33.96;34.41;99674.47;2090925;83;21613;-76
2022/08/17 13:41:06;;;;;;;8.13;5.50;;;;;;;33.90;33.87;99662.30;2093243;84;21578;-73
2022/08/17 13:44:36;;;;;;;5.80;5.33;;;;;;;33.82;33.73;99665.91;2056264;85;21593;-73
2022/08/17 13:47:37;;;;;;;5.95;5.12;;;;;;;33.77;34.03;99661.98;2060045;85;21385;-73
2022/08/17 13:50:44;;;;;;;5.67;5.03;;;;;;;33.73;34.21;99665.14;2094657;84;21017;-73
2022/08/17 13:53:50;;;;;;;19.48;6.05;;;;;;;33.68;34.49;99668.11;2060383;85;21032;-73
2022/08/17 13:57:18;;;;;;;7.12;5.03;;;;;;;33.64;34.10;99666.56;2095229;84;21579;-73
2022/08/17 14:00:34;;;;;;;10.15;5.67;;;;;;;33.63;34.59;99662.79;2050688;85;21108;-73
2022/08/17 14:03:35;;;;;;;5.85;4.92;;;;;;;33.41;34.54;99672.08;2049699;85;21000;-73
2022/08/17 14:06:51;;;;;;;7.67;5.72;;;;;;;33.31;34.22;99680.69;2056647;85;21121;-74
2022/08/17 14:10:16;;;;;;;6.03;5.45;;;;;;;33.21;34.42;99674.42;2090679;84;21064;-73
2022/08/17 14:13:17;;;;;;;7.60;5.67;;;;;;;33.16;34.23;99666.92;2090059;85;21067;-73
2022/08/17 14:16:19;;;;;;;6.67;5.60;;;;;;;33.17;34.35;99664.40;2084552;84;20953;-72
2022/08/17 14:19:23;;;;;;;27.10;6.72;;;;;;;33.19;34.68;99667.06;2060279;85;21570;-72
2022/08/17 14:22:32;;;;;;;6.10;5.45;;;;;;;33.28;34.87;99668.40;2059737;85;21040;-73
2022/08/17 14:25:33;;;;;;;6.63;5.17;;;;;;;33.20;34.38;99661.02;2061147;85;21040;-73
2022/08/17 14:28:34;;;;;;;6.80;5.55;;;;;;;33.10;34.24;99653.92;2083478;84;21068;-72
2022/08/17 14:31:35;;;;;;;5.85;5.35;;;;;;;33.09;35.06;99659.20;2047690;86;21632;-73
2022/08/17 14:34:36;;;;;;;9.58;5.30;;;;;;;33.11;35.02;99657.47;2051189;86;21074;-73
2022/08/17 14:37:38;;;;;;;6.35;5.22;;;;;;;33.09;35.30;99657.82;2062888;85;21529;-72
2022/08/17 14:40:40;;;;;;;6.55;5.95;;;;;;;33.06;35.65;99660.40;2060048;85;21103;-73
2022/08/17 14:43:41;;;;;;;7.58;5.37;;;;;;;33.02;35.67;99666.55;2061370;85;21488;-73
2022/08/17 14:46:44;;;;;;;6.03;5.40;;;;;;;32.89;34.90;99659.30;2066159;85;21047;-72
2022/08/17 14:49:49;;;;;;;6.15;5.20;;;;;;;32.81;35.07;99655.44;2084696;84;21459;-72
2022/08/17 14:52:51;;;;;;;9.33;5.80;;;;;;;32.81;35.56;99662.88;2046827;85;21021;-73
2022/08/17 14:55:52;;;;;;;8.03;6.08;;;;;;;32.77;35.29;99656.41;2046165;86;21048;-72
2022/08/17 14:58:53;;;;;;;6.15;5.55;;;;;;;32.75;35.60;99655.94;2051131;85;21094;-73
2022/08/17 15:01:54;;;;;;;7.60;5.92;;;;;;;32.71;36.30;99665.37;2097249;84;21084;-72
2022/08/17 15:05:02;;;;;;;8.90;5.47;;;;;;;32.54;35.89;99659.34;2092777;84;21015;-73
2022/08/17 15:08:05;;;;;;;7.30;5.37;;;;;;;32.50;36.16;99655.64;2063774;85;21492;-72
2022/08/17 15:11:08;;;;;;;62.38;8.80;;;;;;;32.45;37.48;99656.34;2089784;83;21048;-72
2022/08/17 15:14:10;;;;;;;18.90;6.22;;;;;;;32.36;36.25;99659.09;2064424;85;21460;-72
2022/08/17 15:17:11;;;;;;;18.10;5.30;;;;;;;32.31;37.05;99655.14;2091512;84;21060;-73